Kezdőlap
METAR-TAF:

METAR-TAF

Repülőterek :

Taskent, Üzbegisztán

földrajzi szélesség: 41-16N, földrajzi hosszúság: 069-16E, magasság: 489 m

Jelenlegi meteorológiai megfigyelések

A jelentés 42 perccel ezelõtt készült, 05:00 UTC
Dél-délkeleti szél 4 kt, délkeleti és dél-délnyugati között változik
Hőmérséklet 5°C
Páratartalom 87%
Légköri nyomás 1016 hPa
Látótávolság: 3000 m
Párásság

METAR: UTTT 090500Z 16004KT 130V200 3000 BR NSC 05/03 Q1016 R08R/CLRD70 NOSIG

Idő: 10:42 (05:42 UTC)

Előrejelzés

A jelentés 42 perccel ezelõtt készült, 05:00 UTC
Az előrejelzés 09-én 06 óra UTC és 10-én 06 óra UTC között érvényes
Keleti szél 10 kt
Látótávolság: 5000 m
Párásság, füst
09-én 10 óra UTC és 09-én 22 óra UTC között ideiglenes
Délnyugati szél 8 kt széllökések: 18 kt
Kevés felhő 5000 lábon, Cumulonimbus.

TAF: UTTT 090500Z 0906/1006 09010KT 5000 BR FU NSC TEMPO 0910/0922 22008G18KT FEW050CB

Meteorológiai megfigyelések és előrejelzések több, mint 4000 repülőtéren (METAR és TAF jelentéseket).

A térképen piros és sárga pontok jelzik az elérhető meteorológiai állomásokat.

Mozgassa az egeret a pont fölött, hogy megjelenjen az állomás neve.

Azután kattintson az időjárási megfigyelések és előrejelzések megtekintéséhez.

A térkép megváltoztatása: kattintson a fekete keresztel jelölt zöld gombra ráközelítéshez, a vonallal jelölt zöld gombra távolításhoz, vagy a zöld nyilakra a szomszédos térképek eléréséhez.


METAR-TAF: